createdAt,value
2023-02-28T00:01:16.781Z,1.90
2023-02-28T00:03:46.060Z,1.90
2023-02-28T00:06:12.822Z,1.80
2023-02-28T00:08:42.087Z,1.97
2023-02-28T00:11:16.135Z,2.30
2023-02-28T00:13:47.450Z,2.00
2023-02-28T00:16:17.269Z,1.90
2023-02-28T00:18:46.229Z,2.20
2023-02-28T00:21:12.931Z,1.90
2023-02-28T00:23:39.618Z,1.83
2023-02-28T00:26:06.489Z,2.10
2023-02-28T00:28:33.185Z,1.97
2023-02-28T00:31:01.077Z,1.97
2023-02-28T00:33:28.822Z,2.33
2023-02-28T00:36:07.158Z,2.37
2023-02-28T00:38:33.884Z,2.20
2023-02-28T00:41:05.463Z,2.20
2023-02-28T00:43:34.637Z,2.17
2023-02-28T00:46:04.664Z,2.00
2023-02-28T00:48:31.895Z,2.20
2023-02-28T00:51:01.494Z,2.10
2023-02-28T00:53:28.588Z,2.20
2023-02-28T00:56:03.947Z,2.00
2023-02-28T00:58:31.292Z,2.30
2023-02-28T01:00:58.193Z,2.30
2023-02-28T01:03:27.057Z,1.90
2023-02-28T01:05:56.599Z,2.13
2023-02-28T01:08:23.311Z,2.00
2023-02-28T01:10:52.581Z,2.13
2023-02-28T01:13:20.578Z,2.10
2023-02-28T01:15:54.633Z,1.77
2023-02-28T01:18:25.515Z,2.00
2023-02-28T01:20:53.236Z,2.10
2023-02-28T01:23:22.671Z,1.97
2023-02-28T01:25:51.746Z,2.23
2023-02-28T01:28:18.495Z,2.17
2023-02-28T01:30:49.841Z,2.17
2023-02-28T01:33:16.744Z,2.00
2023-02-28T01:35:43.828Z,1.80
2023-02-28T01:38:22.068Z,1.97
2023-02-28T01:40:49.841Z,2.00
2023-02-28T01:43:45.270Z,2.47
2023-02-28T01:46:15.852Z,2.10
2023-02-28T01:48:58.167Z,2.20
2023-02-28T01:51:35.043Z,2.00
2023-02-28T01:54:14.447Z,2.20
2023-02-28T01:56:48.596Z,2.37
2023-02-28T01:59:24.720Z,1.77
2023-02-28T02:01:51.671Z,2.10
2023-02-28T02:04:18.441Z,2.17
2023-02-28T02:06:48.521Z,1.97
2023-02-28T02:09:15.371Z,2.20
2023-02-28T02:11:44.262Z,2.10
2023-02-28T02:14:22.804Z,2.37
2023-02-28T02:16:52.477Z,2.10
2023-02-28T02:19:25.026Z,2.17
2023-02-28T02:22:25.519Z,2.17
2023-02-28T02:24:58.250Z,2.10
2023-02-28T02:28:03.743Z,2.10
2023-02-28T02:31:00.981Z,1.90
2023-02-28T02:33:30.453Z,2.40
2023-02-28T02:36:08.427Z,2.70
2023-02-28T02:38:44.265Z,2.30
2023-02-28T02:41:16.853Z,2.27
2023-02-28T02:43:54.380Z,2.37
2023-02-28T02:46:34.948Z,2.03
2023-02-28T02:49:07.553Z,1.93
2023-02-28T02:51:35.143Z,2.20
2023-02-28T02:54:13.838Z,2.27
2023-02-28T02:56:43.246Z,2.43
2023-02-28T02:59:14.217Z,1.90
2023-02-28T03:01:44.313Z,2.30
2023-02-28T03:04:17.017Z,2.27
2023-02-28T03:06:46.171Z,2.37
2023-02-28T03:09:12.969Z,2.47
2023-02-28T03:11:41.227Z,2.50
2023-02-28T03:14:39.025Z,2.27
2023-02-28T03:17:18.015Z,2.40
2023-02-28T03:20:06.454Z,2.30
2023-02-28T03:22:53.306Z,2.60
2023-02-28T03:25:44.043Z,2.57
2023-02-28T03:28:32.919Z,2.10
2023-02-28T03:31:11.034Z,2.53
2023-02-28T03:33:45.707Z,2.67
2023-02-28T03:36:18.572Z,2.57
2023-02-28T03:38:55.022Z,2.65
2023-02-28T03:41:31.523Z,2.30
2023-02-28T03:44:07.021Z,2.50
2023-02-28T03:46:39.252Z,2.80
2023-02-28T03:49:21.357Z,2.90
2023-02-28T03:51:50.114Z,2.57
2023-02-28T03:54:35.556Z,2.53
2023-02-28T03:57:28.665Z,2.70
2023-02-28T04:00:01.829Z,2.60
2023-02-28T04:02:29.024Z,3.17
2023-02-28T04:04:57.945Z,2.73
2023-02-28T04:07:26.733Z,2.90
2023-02-28T04:09:53.397Z,3.03
2023-02-28T04:12:24.776Z,3.30
2023-02-28T04:14:56.164Z,2.93
2023-02-28T04:17:25.467Z,3.20
2023-02-28T04:19:52.211Z,2.90
2023-02-28T04:22:19.277Z,3.30
2023-02-28T04:24:46.104Z,3.13
2023-02-28T04:27:17.650Z,2.67
2023-02-28T04:29:45.528Z,3.27
2023-02-28T04:32:12.382Z,3.17
2023-02-28T04:34:42.517Z,3.03
2023-02-28T04:37:14.055Z,2.93
2023-02-28T04:39:41.912Z,3.03
2023-02-28T04:42:11.922Z,3.10
2023-02-28T04:44:40.910Z,3.37
2023-02-28T04:47:07.718Z,3.17
2023-02-28T04:49:36.941Z,3.60
2023-02-28T04:52:03.670Z,3.40
2023-02-28T04:54:30.854Z,3.83
2023-02-28T04:56:58.363Z,3.43
2023-02-28T04:59:25.032Z,3.70
2023-02-28T05:01:54.035Z,3.20
2023-02-28T05:04:23.248Z,3.40
2023-02-28T05:06:56.313Z,3.70
2023-02-28T05:09:23.310Z,3.00
2023-02-28T05:11:49.992Z,3.20
2023-02-28T05:14:18.995Z,3.17
2023-02-28T05:16:45.772Z,3.85
2023-02-28T05:19:12.438Z,4.10
2023-02-28T05:21:52.409Z,3.60
2023-02-28T05:24:23.598Z,3.60
2023-02-28T05:26:53.802Z,3.27
2023-02-28T05:29:20.702Z,3.67
2023-02-28T05:31:49.910Z,4.03
2023-02-28T05:34:17.090Z,3.80
2023-02-28T05:36:48.574Z,3.83
2023-02-28T05:39:17.659Z,3.23
2023-02-28T05:41:44.818Z,3.60
2023-02-28T05:44:12.128Z,3.40
2023-02-28T05:46:39.324Z,3.67
2023-02-28T05:49:06.268Z,4.25
2023-02-28T05:51:37.245Z,3.50
2023-02-28T05:54:04.211Z,3.63
2023-02-28T05:56:35.480Z,3.77
2023-02-28T05:59:02.436Z,3.50
2023-02-28T06:01:36.556Z,3.50
2023-02-28T06:04:05.416Z,4.00
2023-02-28T06:06:32.400Z,3.60
2023-02-28T06:08:59.165Z,3.73
2023-02-28T06:11:29.701Z,3.57
2023-02-28T06:13:58.130Z,3.53
2023-02-28T06:16:27.565Z,3.57
2023-02-28T06:18:56.988Z,3.97
2023-02-28T06:21:26.013Z,3.77
2023-02-28T06:23:55.682Z,3.67
2023-02-28T06:26:22.415Z,4.40
2023-02-28T06:28:49.837Z,3.53
2023-02-28T06:31:18.380Z,3.50
2023-02-28T06:33:46.141Z,4.53
2023-02-28T06:36:16.875Z,4.63
2023-02-28T06:38:43.905Z,4.00
2023-02-28T06:41:11.459Z,4.17
2023-02-28T06:43:43.900Z,3.93
2023-02-28T06:46:14.495Z,4.20
2023-02-28T06:48:44.120Z,4.17
2023-02-28T06:51:14.201Z,4.00
2023-02-28T06:53:43.608Z,4.30
2023-02-28T06:56:16.045Z,3.97
2023-02-28T06:58:43.008Z,3.87
2023-02-28T07:01:10.134Z,3.80
2023-02-28T07:03:37.202Z,4.53
2023-02-28T07:06:05.370Z,4.50
2023-02-28T07:08:32.735Z,4.07
2023-02-28T07:10:59.691Z,4.27
2023-02-28T07:13:26.390Z,4.33
2023-02-28T07:16:02.805Z,4.30
2023-02-28T07:18:32.174Z,5.03
2023-02-28T07:20:59.420Z,4.17
2023-02-28T07:23:28.457Z,4.85
2023-02-28T07:25:57.346Z,4.30
2023-02-28T07:28:26.865Z,4.97
2023-02-28T07:30:56.608Z,4.53
2023-02-28T07:33:24.794Z,4.40
2023-02-28T07:35:51.606Z,4.27
2023-02-28T07:38:18.307Z,4.43
2023-02-28T07:40:45.165Z,4.10
2023-02-28T07:43:14.316Z,4.20
2023-02-28T07:45:43.465Z,4.20
2023-02-28T07:48:10.954Z,4.23
2023-02-28T07:50:39.972Z,4.80
2023-02-28T07:53:06.681Z,4.73
2023-02-28T07:55:33.351Z,4.90
2023-02-28T07:58:00.033Z,4.50
2023-02-28T08:00:29.979Z,3.70
2023-02-28T08:02:56.684Z,4.53
2023-02-28T08:05:23.324Z,4.90
2023-02-28T08:07:53.015Z,4.53
2023-02-28T08:10:22.181Z,4.60
2023-02-28T08:12:48.971Z,4.63
2023-02-28T08:15:15.745Z,4.67
2023-02-28T08:17:44.608Z,5.00
2023-02-28T08:20:14.258Z,4.37
2023-02-28T08:22:46.074Z,4.70
2023-02-28T08:25:15.567Z,4.70
2023-02-28T08:27:44.503Z,4.50
2023-02-28T08:30:13.659Z,4.43
2023-02-28T08:32:41.440Z,4.50
2023-02-28T08:35:10.239Z,4.20
2023-02-28T08:37:37.107Z,4.80
2023-02-28T08:40:05.041Z,4.37
2023-02-28T08:42:36.222Z,4.20
2023-02-28T08:45:03.051Z,4.33
2023-02-28T08:47:29.728Z,4.57
2023-02-28T08:49:56.411Z,4.60
2023-02-28T08:52:23.120Z,4.90
2023-02-28T08:54:50.380Z,5.43
2023-02-28T08:57:17.043Z,5.00
2023-02-28T08:59:43.719Z,4.50
2023-02-28T09:02:14.506Z,5.10
2023-02-28T09:04:42.062Z,5.00
2023-02-28T09:07:11.206Z,5.20
2023-02-28T09:09:38.045Z,5.50
2023-02-28T09:12:05.988Z,4.73
2023-02-28T09:14:32.707Z,5.17
2023-02-28T09:17:01.746Z,5.00
2023-02-28T09:19:28.606Z,5.23
2023-02-28T09:21:55.336Z,5.73
2023-02-28T09:24:22.118Z,5.43
2023-02-28T09:27:01.678Z,5.90
2023-02-28T09:29:33.547Z,5.80
2023-02-28T09:32:00.461Z,5.50
2023-02-28T09:34:28.767Z,6.00
2023-02-28T09:36:56.086Z,6.13
2023-02-28T09:39:23.824Z,6.28
2023-02-28T09:41:53.173Z,5.83
2023-02-28T09:44:45.739Z,6.20
2023-02-28T09:47:35.919Z,6.23
2023-02-28T09:50:19.275Z,5.47
2023-02-28T09:52:49.209Z,6.50
2023-02-28T09:55:46.352Z,6.47
2023-02-28T09:58:28.499Z,5.70
2023-02-28T10:01:08.109Z,6.13
2023-02-28T10:03:43.912Z,5.80
2023-02-28T10:06:25.604Z,5.67
2023-02-28T10:09:05.159Z,6.27
2023-02-28T10:11:34.773Z,6.53
2023-02-28T10:14:15.274Z,6.13
2023-02-28T10:16:56.435Z,6.00
2023-02-28T10:19:33.842Z,5.80
2023-02-28T10:22:11.713Z,6.43
2023-02-28T10:24:49.755Z,5.73
2023-02-28T10:27:18.396Z,6.23
2023-02-28T10:29:56.004Z,6.40
2023-02-28T10:32:36.994Z,5.67
2023-02-28T10:35:39.051Z,6.00
2023-02-28T10:38:18.869Z,6.30
2023-02-28T10:40:47.669Z,5.70
2023-02-28T10:43:14.270Z,6.43
2023-02-28T10:46:08.038Z,6.23
2023-02-28T10:48:40.217Z,5.63
2023-02-28T10:51:09.357Z,6.67
2023-02-28T10:54:00.080Z,6.73
2023-02-28T10:56:31.529Z,6.10
2023-02-28T10:59:04.136Z,5.83
2023-02-28T11:01:39.561Z,6.07
2023-02-28T11:04:26.690Z,6.65
2023-02-28T11:06:58.840Z,5.93
2023-02-28T11:09:30.439Z,5.77
2023-02-28T11:11:57.745Z,6.03
2023-02-28T11:14:30.409Z,6.50
2023-02-28T11:17:03.911Z,5.70
2023-02-28T11:19:39.569Z,6.70
2023-02-28T11:22:06.981Z,7.00
2023-02-28T11:24:44.363Z,6.40
2023-02-28T11:27:32.440Z,6.07
2023-02-28T11:30:02.179Z,6.47
2023-02-28T11:32:31.416Z,6.00
2023-02-28T11:35:12.726Z,5.73
2023-02-28T11:37:42.632Z,5.97
2023-02-28T11:40:25.552Z,5.97
2023-02-28T11:42:55.062Z,6.13
2023-02-28T11:45:45.352Z,6.13
2023-02-28T11:48:28.165Z,5.80
2023-02-28T11:51:50.146Z,6.10
2023-02-28T11:54:52.780Z,6.57
2023-02-28T11:57:40.464Z,6.70
2023-02-28T12:00:22.389Z,5.93
2023-02-28T12:03:15.495Z,6.38
2023-02-28T12:06:00.426Z,6.53
2023-02-28T12:08:48.820Z,6.30
2023-02-28T12:11:18.557Z,6.97
2023-02-28T12:14:00.706Z,6.23
2023-02-28T12:16:37.073Z,6.40
2023-02-28T12:19:44.673Z,6.37
2023-02-28T12:22:31.509Z,6.90
2023-02-28T12:25:07.658Z,5.63
2023-02-28T12:27:38.988Z,7.65
2023-02-28T12:30:10.786Z,7.17
2023-02-28T12:32:53.925Z,6.83
2023-02-28T12:35:29.202Z,6.47
2023-02-28T12:38:01.038Z,6.50
2023-02-28T12:40:35.121Z,6.27
2023-02-28T12:43:09.771Z,6.50
2023-02-28T12:45:49.564Z,6.10
2023-02-28T12:48:22.825Z,6.77
2023-02-28T12:50:52.402Z,6.87
2023-02-28T12:53:45.001Z,6.27
2023-02-28T12:56:23.776Z,6.40
2023-02-28T12:59:02.262Z,6.47
2023-02-28T13:01:54.900Z,6.87
2023-02-28T13:05:04.022Z,6.90
2023-02-28T13:07:34.014Z,6.60
2023-02-28T13:10:03.083Z,7.10
2023-02-28T13:12:32.015Z,6.27
2023-02-28T13:15:05.004Z,6.60
2023-02-28T13:17:32.300Z,6.40
2023-02-28T13:20:00.272Z,6.13
2023-02-28T13:22:26.884Z,6.30
2023-02-28T13:24:57.567Z,5.83
2023-02-28T13:27:26.259Z,6.87
2023-02-28T13:29:54.313Z,6.40
2023-02-28T13:32:30.553Z,6.13
2023-02-28T13:34:59.311Z,6.33
2023-02-28T13:37:25.974Z,6.40
2023-02-28T13:39:54.555Z,4.90
2023-02-28T13:42:56.749Z,5.77
2023-02-28T13:45:28.811Z,6.07
2023-02-28T13:48:04.312Z,5.50
2023-02-28T13:50:40.039Z,6.10
2023-02-28T13:53:14.714Z,3.50
2023-02-28T13:56:04.111Z,4.07
2023-02-28T13:59:01.770Z,5.83
2023-02-28T14:01:31.582Z,5.60
2023-02-28T14:04:15.563Z,5.60
2023-02-28T14:06:50.950Z,5.77
2023-02-28T14:09:31.384Z,5.70
2023-02-28T14:12:18.295Z,5.97
2023-02-28T14:14:44.879Z,5.70
2023-02-28T14:17:17.745Z,6.45
2023-02-28T14:19:51.025Z,6.40
2023-02-28T14:22:41.378Z,6.00
2023-02-28T14:25:42.605Z,5.87
2023-02-28T14:28:41.437Z,5.73
2023-02-28T14:31:14.268Z,6.10
2023-02-28T14:34:02.170Z,7.03
2023-02-28T14:36:41.032Z,6.30
2023-02-28T14:39:11.871Z,6.73
2023-02-28T14:41:44.153Z,6.10
2023-02-28T14:44:28.376Z,6.20
2023-02-28T14:46:59.932Z,6.40
2023-02-28T14:49:35.224Z,6.13
2023-02-28T14:52:06.853Z,6.57
2023-02-28T14:54:36.188Z,6.82
2023-02-28T14:57:03.333Z,7.13
2023-02-28T14:59:32.810Z,6.37
2023-02-28T15:02:19.439Z,6.43
2023-02-28T15:04:54.945Z,6.90
2023-02-28T15:07:33.743Z,6.00
2023-02-28T15:10:21.289Z,6.60
2023-02-28T15:13:02.958Z,6.77
2023-02-28T15:16:03.122Z,6.53
2023-02-28T15:18:48.942Z,6.27
2023-02-28T15:21:26.246Z,6.53
2023-02-28T15:24:08.479Z,6.37
2023-02-28T15:26:40.748Z,5.90
2023-02-28T15:29:18.297Z,6.30
2023-02-28T15:31:57.270Z,6.57
2023-02-28T15:34:42.139Z,6.63
2023-02-28T15:37:33.318Z,6.07
2023-02-28T15:40:12.459Z,6.27
2023-02-28T15:42:43.540Z,5.57
2023-02-28T15:45:39.147Z,6.30
2023-02-28T15:48:16.805Z,6.47
2023-02-28T15:50:43.553Z,5.97
2023-02-28T15:53:24.566Z,6.17
2023-02-28T15:56:02.349Z,6.63
2023-02-28T15:58:29.832Z,6.23
2023-02-28T16:01:18.358Z,6.30
2023-02-28T16:03:51.291Z,5.93
2023-02-28T16:06:17.951Z,6.37
2023-02-28T16:08:46.019Z,6.63
2023-02-28T16:11:12.898Z,5.93
2023-02-28T16:13:39.586Z,6.07
2023-02-28T16:16:06.596Z,6.40
2023-02-28T16:18:35.593Z,5.87
2023-02-28T16:21:04.477Z,6.60
2023-02-28T16:23:33.348Z,6.13
2023-02-28T16:26:04.125Z,5.87
2023-02-28T16:28:40.519Z,6.10
2023-02-28T16:31:08.871Z,5.87
2023-02-28T16:33:35.831Z,6.23
2023-02-28T16:36:04.956Z,6.50
2023-02-28T16:38:35.063Z,5.60
2023-02-28T16:41:01.969Z,5.90
2023-02-28T16:43:33.325Z,6.10
2023-02-28T16:46:01.638Z,6.00
2023-02-28T16:48:28.452Z,5.83
2023-02-28T16:50:55.462Z,5.27
2023-02-28T16:53:22.242Z,5.67
2023-02-28T16:55:51.839Z,5.93
2023-02-28T16:58:20.216Z,5.33
2023-02-28T17:00:46.973Z,5.70
2023-02-28T17:03:33.260Z,6.07
2023-02-28T17:06:01.777Z,5.40
2023-02-28T17:08:30.253Z,5.87
2023-02-28T17:10:59.836Z,6.60
2023-02-28T17:13:28.984Z,5.80
2023-02-28T17:15:58.386Z,6.10
2023-02-28T17:18:25.147Z,6.10
2023-02-28T17:20:51.867Z,6.20
2023-02-28T17:23:20.886Z,6.70
2023-02-28T17:25:55.719Z,6.68
2023-02-28T17:28:25.622Z,5.80
2023-02-28T17:30:54.812Z,6.17
2023-02-28T17:33:23.666Z,5.93
2023-02-28T17:35:50.364Z,5.70
2023-02-28T17:38:19.861Z,5.90
2023-02-28T17:40:49.116Z,6.60
2023-02-28T17:43:18.097Z,6.03
2023-02-28T17:45:44.819Z,6.63
2023-02-28T17:48:13.196Z,6.10
2023-02-28T17:50:44.371Z,6.27
2023-02-28T17:53:13.279Z,5.47
2023-02-28T17:55:41.207Z,6.20
2023-02-28T17:58:12.130Z,5.87
2023-02-28T18:00:41.736Z,6.33
2023-02-28T18:03:10.811Z,5.77
2023-02-28T18:05:40.634Z,5.70
2023-02-28T18:08:07.325Z,5.43
2023-02-28T18:10:36.561Z,6.13
2023-02-28T18:13:05.475Z,5.53
2023-02-28T18:15:34.290Z,6.13
2023-02-28T18:18:03.437Z,4.83
2023-02-28T18:20:30.110Z,6.47
2023-02-28T18:22:56.843Z,5.47
2023-02-28T18:25:23.476Z,5.53
2023-02-28T18:27:59.096Z,5.83
2023-02-28T18:30:31.531Z,5.07
2023-02-28T18:33:03.104Z,5.27
2023-02-28T18:35:37.054Z,4.93
2023-02-28T18:38:09.202Z,5.30
2023-02-28T18:40:36.813Z,5.00
2023-02-28T18:43:03.960Z,5.87
2023-02-28T18:45:34.854Z,6.30
2023-02-28T18:48:04.246Z,5.30
2023-02-28T18:50:33.214Z,6.07
2023-02-28T18:53:03.304Z,5.87
2023-02-28T18:55:32.135Z,5.27
2023-02-28T18:57:58.991Z,5.10
2023-02-28T19:00:26.098Z,5.13
2023-02-28T19:02:52.874Z,5.70
2023-02-28T19:05:20.336Z,5.23
2023-02-28T19:07:47.399Z,5.03
2023-02-28T19:10:19.829Z,5.83
2023-02-28T19:12:48.724Z,5.23
2023-02-28T19:15:17.573Z,5.23
2023-02-28T19:17:49.084Z,5.10
2023-02-28T19:20:16.475Z,5.03
2023-02-28T19:22:44.172Z,5.33
2023-02-28T19:25:11.112Z,5.38
2023-02-28T19:27:37.920Z,5.83
2023-02-28T19:30:06.294Z,5.63
2023-02-28T19:32:33.520Z,5.40
2023-02-28T19:35:00.280Z,5.50
2023-02-28T19:37:27.001Z,5.70
2023-02-28T19:39:56.881Z,5.40
2023-02-28T19:42:33.198Z,6.53
2023-02-28T19:45:03.202Z,5.67
2023-02-28T19:47:32.465Z,6.00
2023-02-28T19:49:59.205Z,6.13
2023-02-28T19:52:28.395Z,5.80
2023-02-28T19:54:55.080Z,6.47
2023-02-28T19:57:24.273Z,5.90
2023-02-28T19:59:53.467Z,5.27
2023-02-28T20:02:22.117Z,6.30
2023-02-28T20:04:54.332Z,5.47
2023-02-28T20:07:21.440Z,6.47
2023-02-28T20:09:49.000Z,5.77
2023-02-28T20:12:24.204Z,6.37
2023-02-28T20:14:52.318Z,5.57
2023-02-28T20:17:19.135Z,6.17
2023-02-28T20:19:48.175Z,6.37
2023-02-28T20:22:14.936Z,5.90
2023-02-28T20:24:41.670Z,5.87
2023-02-28T20:27:08.585Z,5.67
2023-02-28T20:29:38.525Z,6.20
2023-02-28T20:32:10.056Z,6.23
2023-02-28T20:34:36.805Z,6.43
2023-02-28T20:37:03.482Z,6.40
2023-02-28T20:39:30.183Z,6.30
2023-02-28T20:41:56.876Z,6.87
2023-02-28T20:44:23.660Z,5.87
2023-02-28T20:46:55.309Z,6.10
2023-02-28T20:49:24.347Z,6.27
2023-02-28T20:51:55.835Z,6.73
2023-02-28T20:54:22.570Z,6.03
2023-02-28T20:56:49.259Z,6.90
2023-02-28T20:59:16.084Z,5.63
2023-02-28T21:01:42.780Z,6.43
2023-02-28T21:04:09.551Z,6.70
2023-02-28T21:06:38.839Z,7.20
2023-02-28T21:09:09.775Z,7.30
2023-02-28T21:11:41.356Z,6.63
2023-02-28T21:14:16.311Z,6.90
2023-02-28T21:16:44.768Z,6.67
2023-02-28T21:19:16.826Z,6.20
2023-02-28T21:21:45.214Z,6.80
2023-02-28T21:24:13.779Z,6.73
2023-02-28T21:26:44.357Z,7.30
2023-02-28T21:29:12.578Z,7.93
2023-02-28T21:31:42.131Z,6.60
2023-02-28T21:34:12.712Z,8.27
2023-02-28T21:36:45.371Z,7.47
2023-02-28T21:39:18.878Z,8.17
2023-02-28T21:41:47.203Z,7.77
2023-02-28T21:44:21.344Z,7.60
2023-02-28T21:46:50.628Z,7.33
2023-02-28T21:49:19.200Z,7.77
2023-02-28T21:51:48.408Z,7.30
2023-02-28T21:54:18.017Z,7.40
2023-02-28T21:56:44.806Z,7.83
2023-02-28T21:59:11.852Z,8.23
2023-02-28T22:01:49.028Z,7.53
2023-02-28T22:04:22.306Z,8.17
2023-02-28T22:06:54.594Z,7.60
2023-02-28T22:09:21.618Z,8.17
2023-02-28T22:11:50.506Z,7.50
2023-02-28T22:14:17.917Z,7.63
2023-02-28T22:16:52.062Z,8.82
2023-02-28T22:19:23.209Z,8.07
2023-02-28T22:22:15.008Z,7.90
2023-02-28T22:24:43.943Z,7.10
2023-02-28T22:27:15.040Z,8.20
2023-02-28T22:29:41.747Z,7.47
2023-02-28T22:32:09.961Z,8.80
2023-02-28T22:34:41.240Z,7.27
2023-02-28T22:37:10.693Z,7.50
2023-02-28T22:39:37.321Z,7.50
2023-02-28T22:42:06.865Z,7.50
2023-02-28T22:44:36.342Z,7.63
2023-02-28T22:47:03.085Z,7.23
2023-02-28T22:49:29.744Z,7.30
2023-02-28T22:51:58.830Z,7.30
2023-02-28T22:54:27.694Z,6.80
2023-02-28T22:56:54.642Z,7.40
2023-02-28T22:59:21.916Z,7.73
2023-02-28T23:01:48.713Z,8.23
2023-02-28T23:04:15.802Z,7.80
2023-02-28T23:06:43.694Z,7.27
2023-02-28T23:09:18.073Z,7.17
2023-02-28T23:11:51.157Z,7.80
2023-02-28T23:14:19.876Z,7.83
2023-02-28T23:16:54.409Z,8.38
2023-02-28T23:19:30.184Z,7.53
2023-02-28T23:21:59.279Z,7.73
2023-02-28T23:24:28.063Z,7.03
2023-02-28T23:26:57.154Z,7.37
2023-02-28T23:29:25.118Z,7.40
2023-02-28T23:31:54.922Z,7.97
2023-02-28T23:34:28.340Z,7.33
2023-02-28T23:36:56.745Z,7.43
2023-02-28T23:39:24.463Z,8.00
2023-02-28T23:41:51.884Z,7.50
2023-02-28T23:44:20.963Z,8.10
2023-02-28T23:46:50.275Z,9.30
2023-02-28T23:49:20.668Z,8.03
2023-02-28T23:51:49.369Z,8.23
2023-02-28T23:54:17.432Z,7.83
2023-02-28T23:56:46.926Z,7.90
2023-02-28T23:59:13.878Z,8.40
